sensor_id;sensor_type;location;lat;lon;timestamp;pressure;altitude;pressure_sealevel;temperature
25514;BMP180;48128;54.242;10.280;2024-03-22T00:02:16;101355.00;;;7.60
25514;BMP180;48128;54.242;10.280;2024-03-22T00:04:42;101355.00;;;7.60
25514;BMP180;48128;54.242;10.280;2024-03-22T00:07:08;101356.00;;;7.60
25514;BMP180;48128;54.242;10.280;2024-03-22T00:09:34;101356.00;;;7.60
25514;BMP180;48128;54.242;10.280;2024-03-22T00:12:00;101345.00;;;7.60
25514;BMP180;48128;54.242;10.280;2024-03-22T00:14:27;101339.00;;;7.60
25514;BMP180;48128;54.242;10.280;2024-03-22T00:16:52;101331.00;;;7.60
25514;BMP180;48128;54.242;10.280;2024-03-22T00:19:21;101328.00;;;7.70
25514;BMP180;48128;54.242;10.280;2024-03-22T00:21:47;101310.00;;;7.70
25514;BMP180;48128;54.242;10.280;2024-03-22T00:24:13;101306.00;;;7.60
25514;BMP180;48128;54.242;10.280;2024-03-22T00:26:39;101317.00;;;7.70
25514;BMP180;48128;54.242;10.280;2024-03-22T00:29:05;101303.00;;;7.70
25514;BMP180;48128;54.242;10.280;2024-03-22T00:31:32;101288.00;;;7.70
25514;BMP180;48128;54.242;10.280;2024-03-22T00:33:58;101301.00;;;7.70
25514;BMP180;48128;54.242;10.280;2024-03-22T00:36:24;101293.00;;;7.70
25514;BMP180;48128;54.242;10.280;2024-03-22T00:38:50;101305.00;;;7.70
25514;BMP180;48128;54.242;10.280;2024-03-22T00:41:16;101308.00;;;7.70
25514;BMP180;48128;54.242;10.280;2024-03-22T00:43:41;101298.00;;;7.70
25514;BMP180;48128;54.242;10.280;2024-03-22T00:46:07;101303.00;;;7.70
25514;BMP180;48128;54.242;10.280;2024-03-22T00:48:33;101279.00;;;7.70
25514;BMP180;48128;54.242;10.280;2024-03-22T00:51:01;101274.00;;;7.70
25514;BMP180;48128;54.242;10.280;2024-03-22T00:53:26;101288.00;;;7.70
25514;BMP180;48128;54.242;10.280;2024-03-22T00:55:55;101251.00;;;7.70
25514;BMP180;48128;54.242;10.280;2024-03-22T00:58:21;101241.00;;;7.70
25514;BMP180;48128;54.242;10.280;2024-03-22T01:00:47;101231.00;;;7.70
25514;BMP180;48128;54.242;10.280;2024-03-22T01:03:13;101227.00;;;7.70
25514;BMP180;48128;54.242;10.280;2024-03-22T01:05:39;101224.00;;;7.70
25514;BMP180;48128;54.242;10.280;2024-03-22T01:08:06;101213.00;;;7.70
25514;BMP180;48128;54.242;10.280;2024-03-22T01:10:33;101226.00;;;7.70
25514;BMP180;48128;54.242;10.280;2024-03-22T01:13:00;101218.00;;;7.80
25514;BMP180;48128;54.242;10.280;2024-03-22T01:15:26;101230.00;;;7.80
25514;BMP180;48128;54.242;10.280;2024-03-22T01:17:52;101225.00;;;7.70
25514;BMP180;48128;54.242;10.280;2024-03-22T01:20:19;101222.00;;;7.80
25514;BMP180;48128;54.242;10.280;2024-03-22T01:22:45;101215.00;;;7.80
25514;BMP180;48128;54.242;10.280;2024-03-22T01:25:11;101204.00;;;7.80
25514;BMP180;48128;54.242;10.280;2024-03-22T01:27:37;101206.00;;;7.80
25514;BMP180;48128;54.242;10.280;2024-03-22T01:30:03;101201.00;;;7.80
25514;BMP180;48128;54.242;10.280;2024-03-22T01:32:29;101203.00;;;7.80
25514;BMP180;48128;54.242;10.280;2024-03-22T01:34:57;101190.00;;;7.80
25514;BMP180;48128;54.242;10.280;2024-03-22T01:37:23;101183.00;;;7.80
25514;BMP180;48128;54.242;10.280;2024-03-22T01:39:49;101190.00;;;7.80
25514;BMP180;48128;54.242;10.280;2024-03-22T01:42:15;101186.00;;;7.80
25514;BMP180;48128;54.242;10.280;2024-03-22T01:44:41;101188.00;;;7.80
25514;BMP180;48128;54.242;10.280;2024-03-22T01:47:07;101174.00;;;7.80
25514;BMP180;48128;54.242;10.280;2024-03-22T01:49:33;101167.00;;;7.80
25514;BMP180;48128;54.242;10.280;2024-03-22T01:51:59;101164.00;;;7.80
25514;BMP180;48128;54.242;10.280;2024-03-22T01:54:25;101173.00;;;7.90
25514;BMP180;48128;54.242;10.280;2024-03-22T01:56:51;101172.00;;;7.90
25514;BMP180;48128;54.242;10.280;2024-03-22T01:59:16;101188.00;;;7.90
25514;BMP180;48128;54.242;10.280;2024-03-22T02:01:43;101174.00;;;7.90
25514;BMP180;48128;54.242;10.280;2024-03-22T02:04:09;101170.00;;;7.90
25514;BMP180;48128;54.242;10.280;2024-03-22T02:06:35;101155.00;;;7.90
25514;BMP180;48128;54.242;10.280;2024-03-22T02:09:01;101154.00;;;7.90
25514;BMP180;48128;54.242;10.280;2024-03-22T02:11:30;101152.00;;;7.90
25514;BMP180;48128;54.242;10.280;2024-03-22T02:13:56;101155.00;;;7.90
25514;BMP180;48128;54.242;10.280;2024-03-22T02:16:21;101133.00;;;7.90
25514;BMP180;48128;54.242;10.280;2024-03-22T02:18:47;101137.00;;;7.90
25514;BMP180;48128;54.242;10.280;2024-03-22T02:21:14;101144.00;;;8.00
25514;BMP180;48128;54.242;10.280;2024-03-22T02:23:40;101141.00;;;8.00
25514;BMP180;48128;54.242;10.280;2024-03-22T02:26:07;101118.00;;;8.00
25514;BMP180;48128;54.242;10.280;2024-03-22T02:28:34;101122.00;;;8.00
25514;BMP180;48128;54.242;10.280;2024-03-22T02:31:02;101129.00;;;8.00
25514;BMP180;48128;54.242;10.280;2024-03-22T02:33:28;101128.00;;;8.00
25514;BMP180;48128;54.242;10.280;2024-03-22T02:35:54;101126.00;;;8.00
25514;BMP180;48128;54.242;10.280;2024-03-22T02:38:20;101132.00;;;8.00
25514;BMP180;48128;54.242;10.280;2024-03-22T02:40:48;101108.00;;;8.00
25514;BMP180;48128;54.242;10.280;2024-03-22T02:43:14;101104.00;;;8.00
25514;BMP180;48128;54.242;10.280;2024-03-22T02:45:40;101113.00;;;8.00
25514;BMP180;48128;54.242;10.280;2024-03-22T02:48:06;101111.00;;;8.00
25514;BMP180;48128;54.242;10.280;2024-03-22T02:50:33;101099.00;;;8.00
25514;BMP180;48128;54.242;10.280;2024-03-22T02:52:59;101107.00;;;8.00
25514;BMP180;48128;54.242;10.280;2024-03-22T02:55:25;101095.00;;;8.10
25514;BMP180;48128;54.242;10.280;2024-03-22T02:57:52;101092.00;;;8.10
25514;BMP180;48128;54.242;10.280;2024-03-22T03:00:18;101088.00;;;8.10
25514;BMP180;48128;54.242;10.280;2024-03-22T03:02:45;101087.00;;;8.10
25514;BMP180;48128;54.242;10.280;2024-03-22T03:05:11;101078.00;;;8.10
25514;BMP180;48128;54.242;10.280;2024-03-22T03:07:37;101069.00;;;8.10
25514;BMP180;48128;54.242;10.280;2024-03-22T03:10:03;101077.00;;;8.10
25514;BMP180;48128;54.242;10.280;2024-03-22T03:12:29;101072.00;;;8.10
25514;BMP180;48128;54.242;10.280;2024-03-22T03:14:55;101058.00;;;8.10
25514;BMP180;48128;54.242;10.280;2024-03-22T03:17:21;101062.00;;;8.10
25514;BMP180;48128;54.242;10.280;2024-03-22T03:19:49;101042.00;;;8.10
25514;BMP180;48128;54.242;10.280;2024-03-22T03:22:15;101041.00;;;8.20
25514;BMP180;48128;54.242;10.280;2024-03-22T03:24:41;101047.00;;;8.20
25514;BMP180;48128;54.242;10.280;2024-03-22T03:27:06;101039.00;;;8.20
25514;BMP180;48128;54.242;10.280;2024-03-22T03:29:33;101033.00;;;8.20
25514;BMP180;48128;54.242;10.280;2024-03-22T03:31:59;101030.00;;;8.20
25514;BMP180;48128;54.242;10.280;2024-03-22T03:34:25;101025.00;;;8.20
25514;BMP180;48128;54.242;10.280;2024-03-22T03:36:51;101021.00;;;8.20
25514;BMP180;48128;54.242;10.280;2024-03-22T03:39:16;101014.00;;;8.20
25514;BMP180;48128;54.242;10.280;2024-03-22T03:41:42;101017.00;;;8.20
25514;BMP180;48128;54.242;10.280;2024-03-22T03:44:08;101008.00;;;8.30
25514;BMP180;48128;54.242;10.280;2024-03-22T03:46:34;101000.00;;;8.30
25514;BMP180;48128;54.242;10.280;2024-03-22T03:49:00;101010.00;;;8.30
25514;BMP180;48128;54.242;10.280;2024-03-22T03:51:26;101007.00;;;8.30
25514;BMP180;48128;54.242;10.280;2024-03-22T03:53:52;101001.00;;;8.30
25514;BMP180;48128;54.242;10.280;2024-03-22T03:56:18;100996.00;;;8.30
25514;BMP180;48128;54.242;10.280;2024-03-22T03:58:46;100992.00;;;8.30
25514;BMP180;48128;54.242;10.280;2024-03-22T04:01:12;100983.00;;;8.30
25514;BMP180;48128;54.242;10.280;2024-03-22T04:03:38;100990.00;;;8.30
25514;BMP180;48128;54.242;10.280;2024-03-22T04:06:04;100985.00;;;8.30
25514;BMP180;48128;54.242;10.280;2024-03-22T04:08:30;100982.00;;;8.30
25514;BMP180;48128;54.242;10.280;2024-03-22T04:10:57;100971.00;;;8.30
25514;BMP180;48128;54.242;10.280;2024-03-22T04:13:24;100971.00;;;8.30
25514;BMP180;48128;54.242;10.280;2024-03-22T04:15:51;100969.00;;;8.40
25514;BMP180;48128;54.242;10.280;2024-03-22T04:18:17;100981.00;;;8.40
25514;BMP180;48128;54.242;10.280;2024-03-22T04:20:53;100974.00;;;8.40
25514;BMP180;48128;54.242;10.280;2024-03-22T04:23:19;100967.00;;;8.40
25514;BMP180;48128;54.242;10.280;2024-03-22T04:25:56;100965.00;;;8.40
25514;BMP180;48128;54.242;10.280;2024-03-22T04:28:23;100957.00;;;8.40
25514;BMP180;48128;54.242;10.280;2024-03-22T04:31:06;100958.00;;;8.50
25514;BMP180;48128;54.242;10.280;2024-03-22T04:33:33;100962.00;;;8.50
25514;BMP180;48128;54.242;10.280;2024-03-22T04:36:00;100952.00;;;8.50
25514;BMP180;48128;54.242;10.280;2024-03-22T04:38:27;100952.00;;;8.50
25514;BMP180;48128;54.242;10.280;2024-03-22T04:40:53;100952.00;;;8.50
25514;BMP180;48128;54.242;10.280;2024-03-22T04:43:20;100944.00;;;8.50
25514;BMP180;48128;54.242;10.280;2024-03-22T04:45:47;100945.00;;;8.60
25514;BMP180;48128;54.242;10.280;2024-03-22T04:48:16;100942.00;;;8.60
25514;BMP180;48128;54.242;10.280;2024-03-22T04:50:42;100936.00;;;8.60
25514;BMP180;48128;54.242;10.280;2024-03-22T04:53:09;100942.00;;;8.60
25514;BMP180;48128;54.242;10.280;2024-03-22T04:55:35;100936.00;;;8.60
25514;BMP180;48128;54.242;10.280;2024-03-22T04:58:01;100919.00;;;8.60
25514;BMP180;48128;54.242;10.280;2024-03-22T05:00:30;100909.00;;;8.60
25514;BMP180;48128;54.242;10.280;2024-03-22T05:02:56;100904.00;;;8.60
25514;BMP180;48128;54.242;10.280;2024-03-22T05:05:22;100901.00;;;8.60
25514;BMP180;48128;54.242;10.280;2024-03-22T05:07:48;100892.00;;;8.60
25514;BMP180;48128;54.242;10.280;2024-03-22T05:10:14;100888.00;;;8.60
25514;BMP180;48128;54.242;10.280;2024-03-22T05:12:42;100899.00;;;8.60
25514;BMP180;48128;54.242;10.280;2024-03-22T05:15:09;100885.00;;;8.60
25514;BMP180;48128;54.242;10.280;2024-03-22T05:17:34;100890.00;;;8.60
25514;BMP180;48128;54.242;10.280;2024-03-22T05:20:01;100885.00;;;8.60
25514;BMP180;48128;54.242;10.280;2024-03-22T05:22:31;100881.00;;;8.60
25514;BMP180;48128;54.242;10.280;2024-03-22T05:24:57;100880.00;;;8.60
25514;BMP180;48128;54.242;10.280;2024-03-22T05:27:23;100887.00;;;8.60
25514;BMP180;48128;54.242;10.280;2024-03-22T05:29:49;100883.00;;;8.70
25514;BMP180;48128;54.242;10.280;2024-03-22T05:32:15;100883.00;;;8.70
25514;BMP180;48128;54.242;10.280;2024-03-22T05:34:42;100874.00;;;8.70
25514;BMP180;48128;54.242;10.280;2024-03-22T05:37:08;100875.00;;;8.70
25514;BMP180;48128;54.242;10.280;2024-03-22T05:39:34;100886.00;;;8.70
25514;BMP180;48128;54.242;10.280;2024-03-22T05:42:01;100878.00;;;8.70
25514;BMP180;48128;54.242;10.280;2024-03-22T05:44:27;100873.00;;;8.70
25514;BMP180;48128;54.242;10.280;2024-03-22T05:46:53;100870.00;;;8.70
25514;BMP180;48128;54.242;10.280;2024-03-22T05:49:19;100873.00;;;8.70
25514;BMP180;48128;54.242;10.280;2024-03-22T05:51:45;100863.00;;;8.70
25514;BMP180;48128;54.242;10.280;2024-03-22T05:54:11;100852.00;;;8.80
25514;BMP180;48128;54.242;10.280;2024-03-22T05:56:37;100846.00;;;8.80
25514;BMP180;48128;54.242;10.280;2024-03-22T05:59:03;100860.00;;;8.80
25514;BMP180;48128;54.242;10.280;2024-03-22T06:01:29;100848.00;;;8.80
25514;BMP180;48128;54.242;10.280;2024-03-22T06:03:55;100839.00;;;8.80
25514;BMP180;48128;54.242;10.280;2024-03-22T06:06:21;100844.00;;;8.90
25514;BMP180;48128;54.242;10.280;2024-03-22T06:08:53;100844.00;;;8.90
25514;BMP180;48128;54.242;10.280;2024-03-22T06:11:20;100839.00;;;8.90
25514;BMP180;48128;54.242;10.280;2024-03-22T06:13:49;100855.00;;;8.90
25514;BMP180;48128;54.242;10.280;2024-03-22T06:16:15;100850.00;;;9.00
25514;BMP180;48128;54.242;10.280;2024-03-22T06:18:41;100844.00;;;9.00
25514;BMP180;48128;54.242;10.280;2024-03-22T06:21:07;100848.00;;;9.00
25514;BMP180;48128;54.242;10.280;2024-03-22T06:23:33;100831.00;;;9.00
25514;BMP180;48128;54.242;10.280;2024-03-22T06:25:59;100833.00;;;9.00
25514;BMP180;48128;54.242;10.280;2024-03-22T06:28:27;100821.00;;;9.00
25514;BMP180;48128;54.242;10.280;2024-03-22T06:30:53;100807.00;;;9.00
25514;BMP180;48128;54.242;10.280;2024-03-22T06:33:20;100807.00;;;9.00
25514;BMP180;48128;54.242;10.280;2024-03-22T06:35:46;100798.00;;;9.10
25514;BMP180;48128;54.242;10.280;2024-03-22T06:38:13;100801.00;;;9.10
25514;BMP180;48128;54.242;10.280;2024-03-22T06:40:39;100794.00;;;9.10
25514;BMP180;48128;54.242;10.280;2024-03-22T06:43:05;100775.00;;;9.10
25514;BMP180;48128;54.242;10.280;2024-03-22T06:45:31;100785.00;;;9.10
25514;BMP180;48128;54.242;10.280;2024-03-22T06:47:57;100778.00;;;9.10
25514;BMP180;48128;54.242;10.280;2024-03-22T06:50:23;100775.00;;;9.20
25514;BMP180;48128;54.242;10.280;2024-03-22T06:52:54;100771.00;;;9.20
25514;BMP180;48128;54.242;10.280;2024-03-22T06:55:21;100769.00;;;9.20
25514;BMP180;48128;54.242;10.280;2024-03-22T06:57:47;100757.00;;;9.20
25514;BMP180;48128;54.242;10.280;2024-03-22T07:00:14;100755.00;;;9.20
25514;BMP180;48128;54.242;10.280;2024-03-22T07:02:43;100759.00;;;9.20
25514;BMP180;48128;54.242;10.280;2024-03-22T07:05:10;100763.00;;;9.10
25514;BMP180;48128;54.242;10.280;2024-03-22T07:07:37;100769.00;;;9.10
25514;BMP180;48128;54.242;10.280;2024-03-22T07:10:04;100767.00;;;9.20
25514;BMP180;48128;54.242;10.280;2024-03-22T07:12:33;100769.00;;;9.20
25514;BMP180;48128;54.242;10.280;2024-03-22T07:15:02;100770.00;;;9.20
25514;BMP180;48128;54.242;10.280;2024-03-22T07:17:28;100755.00;;;9.20
25514;BMP180;48128;54.242;10.280;2024-03-22T07:19:54;100752.00;;;9.20
25514;BMP180;48128;54.242;10.280;2024-03-22T07:22:21;100768.00;;;9.20
25514;BMP180;48128;54.242;10.280;2024-03-22T07:24:48;100769.00;;;9.20
25514;BMP180;48128;54.242;10.280;2024-03-22T07:27:15;100766.00;;;9.20
25514;BMP180;48128;54.242;10.280;2024-03-22T07:29:41;100771.00;;;9.30
25514;BMP180;48128;54.242;10.280;2024-03-22T07:32:07;100770.00;;;9.30
25514;BMP180;48128;54.242;10.280;2024-03-22T07:34:33;100772.00;;;9.30
25514;BMP180;48128;54.242;10.280;2024-03-22T07:36:59;100767.00;;;9.20
25514;BMP180;48128;54.242;10.280;2024-03-22T07:39:25;100770.00;;;9.30
25514;BMP180;48128;54.242;10.280;2024-03-22T07:41:51;100780.00;;;9.20
25514;BMP180;48128;54.242;10.280;2024-03-22T07:44:17;100776.00;;;9.20
25514;BMP180;48128;54.242;10.280;2024-03-22T07:46:44;100770.00;;;9.20
25514;BMP180;48128;54.242;10.280;2024-03-22T07:49:11;100767.00;;;9.20
25514;BMP180;48128;54.242;10.280;2024-03-22T07:51:37;100749.00;;;9.20
25514;BMP180;48128;54.242;10.280;2024-03-22T07:54:03;100736.00;;;9.20
25514;BMP180;48128;54.242;10.280;2024-03-22T07:56:30;100744.00;;;9.20
25514;BMP180;48128;54.242;10.280;2024-03-22T07:58:56;100746.00;;;9.20
25514;BMP180;48128;54.242;10.280;2024-03-22T08:01:23;100754.00;;;9.20
25514;BMP180;48128;54.242;10.280;2024-03-22T08:03:49;100752.00;;;9.20
25514;BMP180;48128;54.242;10.280;2024-03-22T08:06:15;100749.00;;;9.20
25514;BMP180;48128;54.242;10.280;2024-03-22T08:08:41;100740.00;;;9.20
25514;BMP180;48128;54.242;10.280;2024-03-22T08:11:07;100749.00;;;9.30
25514;BMP180;48128;54.242;10.280;2024-03-22T08:13:33;100752.00;;;9.30
25514;BMP180;48128;54.242;10.280;2024-03-22T08:15:59;100740.00;;;9.30
25514;BMP180;48128;54.242;10.280;2024-03-22T08:18:25;100732.00;;;9.30
25514;BMP180;48128;54.242;10.280;2024-03-22T08:20:51;100743.00;;;9.30
25514;BMP180;48128;54.242;10.280;2024-03-22T08:23:17;100748.00;;;9.30
25514;BMP180;48128;54.242;10.280;2024-03-22T08:25:46;100751.00;;;9.30
25514;BMP180;48128;54.242;10.280;2024-03-22T08:28:12;100748.00;;;9.30
25514;BMP180;48128;54.242;10.280;2024-03-22T08:30:42;100737.00;;;9.30
25514;BMP180;48128;54.242;10.280;2024-03-22T08:33:09;100749.00;;;9.30
25514;BMP180;48128;54.242;10.280;2024-03-22T08:35:35;100743.00;;;9.30
25514;BMP180;48128;54.242;10.280;2024-03-22T08:38:01;100739.00;;;9.40
25514;BMP180;48128;54.242;10.280;2024-03-22T08:40:27;100736.00;;;9.30
25514;BMP180;48128;54.242;10.280;2024-03-22T08:42:53;100743.00;;;9.30
25514;BMP180;48128;54.242;10.280;2024-03-22T08:45:19;100735.00;;;9.30
25514;BMP180;48128;54.242;10.280;2024-03-22T08:47:47;100730.00;;;9.40
25514;BMP180;48128;54.242;10.280;2024-03-22T08:50:13;100723.00;;;9.40
25514;BMP180;48128;54.242;10.280;2024-03-22T08:52:39;100706.00;;;9.50
25514;BMP180;48128;54.242;10.280;2024-03-22T08:55:05;100715.00;;;9.60
25514;BMP180;48128;54.242;10.280;2024-03-22T08:57:33;100713.00;;;9.70
25514;BMP180;48128;54.242;10.280;2024-03-22T08:59:59;100705.00;;;9.80
25514;BMP180;48128;54.242;10.280;2024-03-22T09:02:25;100706.00;;;9.80
25514;BMP180;48128;54.242;10.280;2024-03-22T09:04:52;100708.00;;;9.80
25514;BMP180;48128;54.242;10.280;2024-03-22T09:07:18;100714.00;;;9.90
25514;BMP180;48128;54.242;10.280;2024-03-22T09:09:45;100718.00;;;9.90
25514;BMP180;48128;54.242;10.280;2024-03-22T09:12:11;100713.00;;;9.90
25514;BMP180;48128;54.242;10.280;2024-03-22T09:14:37;100712.00;;;9.90
25514;BMP180;48128;54.242;10.280;2024-03-22T09:17:03;100688.00;;;10.00
25514;BMP180;48128;54.242;10.280;2024-03-22T09:19:29;100717.00;;;10.00
25514;BMP180;48128;54.242;10.280;2024-03-22T09:21:55;100713.00;;;10.00
25514;BMP180;48128;54.242;10.280;2024-03-22T09:24:21;100707.00;;;10.00
25514;BMP180;48128;54.242;10.280;2024-03-22T09:26:47;100698.00;;;10.00
25514;BMP180;48128;54.242;10.280;2024-03-22T09:29:13;100698.00;;;10.10
25514;BMP180;48128;54.242;10.280;2024-03-22T09:31:39;100691.00;;;10.10
25514;BMP180;48128;54.242;10.280;2024-03-22T09:34:05;100695.00;;;10.10
25514;BMP180;48128;54.242;10.280;2024-03-22T09:36:31;100700.00;;;10.10
25514;BMP180;48128;54.242;10.280;2024-03-22T09:39:01;100688.00;;;10.10
25514;BMP180;48128;54.242;10.280;2024-03-22T09:41:27;100700.00;;;10.20
25514;BMP180;48128;54.242;10.280;2024-03-22T09:43:58;100688.00;;;10.20
25514;BMP180;48128;54.242;10.280;2024-03-22T09:46:24;100690.00;;;10.30
25514;BMP180;48128;54.242;10.280;2024-03-22T09:48:51;100691.00;;;10.30
25514;BMP180;48128;54.242;10.280;2024-03-22T09:51:17;100680.00;;;10.40
25514;BMP180;48128;54.242;10.280;2024-03-22T09:53:52;100674.00;;;10.60
25514;BMP180;48128;54.242;10.280;2024-03-22T09:56:20;100677.00;;;10.70
25514;BMP180;48128;54.242;10.280;2024-03-22T09:58:46;100677.00;;;10.80
25514;BMP180;48128;54.242;10.280;2024-03-22T10:01:14;100693.00;;;10.80
25514;BMP180;48128;54.242;10.280;2024-03-22T10:03:40;100676.00;;;10.70
25514;BMP180;48128;54.242;10.280;2024-03-22T10:06:06;100673.00;;;10.60
25514;BMP180;48128;54.242;10.280;2024-03-22T10:08:32;100666.00;;;10.50
25514;BMP180;48128;54.242;10.280;2024-03-22T10:11:01;100662.00;;;10.50
25514;BMP180;48128;54.242;10.280;2024-03-22T10:13:28;100667.00;;;10.40
25514;BMP180;48128;54.242;10.280;2024-03-22T10:15:56;100676.00;;;10.30
25514;BMP180;48128;54.242;10.280;2024-03-22T10:18:22;100673.00;;;10.30
25514;BMP180;48128;54.242;10.280;2024-03-22T10:21:01;100671.00;;;10.20
25514;BMP180;48128;54.242;10.280;2024-03-22T10:23:28;100673.00;;;10.10
25514;BMP180;48128;54.242;10.280;2024-03-22T10:25:56;100680.00;;;10.10
25514;BMP180;48128;54.242;10.280;2024-03-22T10:28:27;100670.00;;;10.00
25514;BMP180;48128;54.242;10.280;2024-03-22T10:30:53;100676.00;;;9.90
25514;BMP180;48128;54.242;10.280;2024-03-22T10:33:20;100682.00;;;9.90
25514;BMP180;48128;54.242;10.280;2024-03-22T10:35:51;100676.00;;;9.90
25514;BMP180;48128;54.242;10.280;2024-03-22T10:38:18;100682.00;;;9.80
25514;BMP180;48128;54.242;10.280;2024-03-22T10:40:45;100668.00;;;9.80
25514;BMP180;48128;54.242;10.280;2024-03-22T10:43:13;100681.00;;;9.80
25514;BMP180;48128;54.242;10.280;2024-03-22T10:45:40;100671.00;;;9.80
25514;BMP180;48128;54.242;10.280;2024-03-22T10:48:11;100666.00;;;9.80
25514;BMP180;48128;54.242;10.280;2024-03-22T10:50:40;100664.00;;;9.80
25514;BMP180;48128;54.242;10.280;2024-03-22T10:53:12;100674.00;;;9.80
25514;BMP180;48128;54.242;10.280;2024-03-22T10:55:42;100667.00;;;9.80
25514;BMP180;48128;54.242;10.280;2024-03-22T10:58:21;100669.00;;;9.80
25514;BMP180;48128;54.242;10.280;2024-03-22T11:00:50;100649.00;;;9.80
25514;BMP180;48128;54.242;10.280;2024-03-22T11:03:19;100654.00;;;9.90
25514;BMP180;48128;54.242;10.280;2024-03-22T11:05:46;100634.00;;;9.90
25514;BMP180;48128;54.242;10.280;2024-03-22T11:08:12;100645.00;;;9.90
25514;BMP180;48128;54.242;10.280;2024-03-22T11:10:39;100648.00;;;10.00
25514;BMP180;48128;54.242;10.280;2024-03-22T11:13:07;100639.00;;;10.00
25514;BMP180;48128;54.242;10.280;2024-03-22T11:15:34;100646.00;;;10.10
25514;BMP180;48128;54.242;10.280;2024-03-22T11:18:00;100656.00;;;10.10
25514;BMP180;48128;54.242;10.280;2024-03-22T11:20:27;100649.00;;;10.00
25514;BMP180;48128;54.242;10.280;2024-03-22T11:22:53;100658.00;;;10.00
25514;BMP180;48128;54.242;10.280;2024-03-22T11:25:19;100661.00;;;10.00
25514;BMP180;48128;54.242;10.280;2024-03-22T11:27:46;100645.00;;;10.00
25514;BMP180;48128;54.242;10.280;2024-03-22T11:30:12;100651.00;;;10.00
25514;BMP180;48128;54.242;10.280;2024-03-22T11:32:40;100644.00;;;10.00
25514;BMP180;48128;54.242;10.280;2024-03-22T11:35:12;100639.00;;;10.10
25514;BMP180;48128;54.242;10.280;2024-03-22T11:37:41;100639.00;;;10.20
25514;BMP180;48128;54.242;10.280;2024-03-22T11:40:11;100641.00;;;10.30
25514;BMP180;48128;54.242;10.280;2024-03-22T11:42:38;100639.00;;;10.40
25514;BMP180;48128;54.242;10.280;2024-03-22T11:45:05;100644.00;;;10.40
25514;BMP180;48128;54.242;10.280;2024-03-22T11:47:34;100658.00;;;10.40
25514;BMP180;48128;54.242;10.280;2024-03-22T11:50:00;100649.00;;;10.30
25514;BMP180;48128;54.242;10.280;2024-03-22T11:52:28;100625.00;;;10.30
25514;BMP180;48128;54.242;10.280;2024-03-22T11:54:54;100635.00;;;10.40
25514;BMP180;48128;54.242;10.280;2024-03-22T11:57:20;100635.00;;;10.30
25514;BMP180;48128;54.242;10.280;2024-03-22T11:59:47;100636.00;;;10.30
25514;BMP180;48128;54.242;10.280;2024-03-22T12:02:13;100624.00;;;10.30
25514;BMP180;48128;54.242;10.280;2024-03-22T12:04:42;100636.00;;;10.30
25514;BMP180;48128;54.242;10.280;2024-03-22T12:07:10;100625.00;;;10.30
25514;BMP180;48128;54.242;10.280;2024-03-22T12:09:37;100617.00;;;10.30
25514;BMP180;48128;54.242;10.280;2024-03-22T12:12:04;100624.00;;;10.20
25514;BMP180;48128;54.242;10.280;2024-03-22T12:14:30;100613.00;;;10.20
25514;BMP180;48128;54.242;10.280;2024-03-22T12:16:56;100608.00;;;10.10
25514;BMP180;48128;54.242;10.280;2024-03-22T12:19:22;100610.00;;;10.20
25514;BMP180;48128;54.242;10.280;2024-03-22T12:21:48;100612.00;;;10.20
25514;BMP180;48128;54.242;10.280;2024-03-22T12:24:14;100615.00;;;10.10
25514;BMP180;48128;54.242;10.280;2024-03-22T12:26:40;100608.00;;;10.10
25514;BMP180;48128;54.242;10.280;2024-03-22T12:29:06;100606.00;;;10.00
25514;BMP180;48128;54.242;10.280;2024-03-22T12:31:33;100609.00;;;10.00
25514;BMP180;48128;54.242;10.280;2024-03-22T12:33:59;100613.00;;;9.90
25514;BMP180;48128;54.242;10.280;2024-03-22T12:36:25;100622.00;;;10.00
25514;BMP180;48128;54.242;10.280;2024-03-22T12:38:51;100612.00;;;9.90
25514;BMP180;48128;54.242;10.280;2024-03-22T12:41:17;100616.00;;;9.90
25514;BMP180;48128;54.242;10.280;2024-03-22T12:43:43;100618.00;;;9.80
25514;BMP180;48128;54.242;10.280;2024-03-22T12:46:09;100619.00;;;9.80
25514;BMP180;48128;54.242;10.280;2024-03-22T12:48:35;100616.00;;;9.80
25514;BMP180;48128;54.242;10.280;2024-03-22T12:51:01;100619.00;;;9.80
25514;BMP180;48128;54.242;10.280;2024-03-22T12:53:27;100629.00;;;9.80
25514;BMP180;48128;54.242;10.280;2024-03-22T12:55:53;100632.00;;;9.70
25514;BMP180;48128;54.242;10.280;2024-03-22T12:58:19;100619.00;;;9.70
25514;BMP180;48128;54.242;10.280;2024-03-22T13:00:45;100624.00;;;9.70
25514;BMP180;48128;54.242;10.280;2024-03-22T13:03:11;100616.00;;;9.60
25514;BMP180;48128;54.242;10.280;2024-03-22T13:05:38;100595.00;;;9.60
25514;BMP180;48128;54.242;10.280;2024-03-22T13:08:05;100601.00;;;9.60
25514;BMP180;48128;54.242;10.280;2024-03-22T13:10:31;100606.00;;;9.60
25514;BMP180;48128;54.242;10.280;2024-03-22T13:12:57;100610.00;;;9.60
25514;BMP180;48128;54.242;10.280;2024-03-22T13:15:23;100595.00;;;9.80
25514;BMP180;48128;54.242;10.280;2024-03-22T13:17:50;100587.00;;;9.90
25514;BMP180;48128;54.242;10.280;2024-03-22T13:20:16;100581.00;;;10.10
25514;BMP180;48128;54.242;10.280;2024-03-22T13:22:44;100596.00;;;10.30
25514;BMP180;48128;54.242;10.280;2024-03-22T13:25:10;100619.00;;;10.40
25514;BMP180;48128;54.242;10.280;2024-03-22T13:27:37;100627.00;;;10.50
25514;BMP180;48128;54.242;10.280;2024-03-22T13:30:07;100618.00;;;10.50
25514;BMP180;48128;54.242;10.280;2024-03-22T13:32:36;100633.00;;;10.50
25514;BMP180;48128;54.242;10.280;2024-03-22T13:35:03;100654.00;;;10.40
25514;BMP180;48128;54.242;10.280;2024-03-22T13:37:30;100636.00;;;10.40
25514;BMP180;48128;54.242;10.280;2024-03-22T13:39:56;100642.00;;;10.50
25514;BMP180;48128;54.242;10.280;2024-03-22T13:42:23;100635.00;;;10.50
25514;BMP180;48128;54.242;10.280;2024-03-22T13:44:48;100619.00;;;10.50
25514;BMP180;48128;54.242;10.280;2024-03-22T13:47:14;100631.00;;;10.40
25514;BMP180;48128;54.242;10.280;2024-03-22T13:49:40;100631.00;;;10.30
25514;BMP180;48128;54.242;10.280;2024-03-22T13:52:08;100627.00;;;10.10